Time;durP1;ratioP1;P1;durP2;ratioP2;P2;SDS_P1;SDS_P2;PMS_P1;PMS_P2;Temp;Humidity;BMP_temperature;BMP_pressure;BME280_temperature;BME280_humidity;BME280_pressure;Samples;Min_cycle;Max_cycle;Signal;HPM_P1;HPM_P2
2021/06/04 00:01:40;;;;;;;5.82;4.40;;;;;;;;;;5032154;28;20046;-63
2021/06/04 00:04:08;;;;;;;8.65;4.38;;;;;;;;;;5031238;28;20443;-63
2021/06/04 00:06:36;;;;;;;6.60;4.13;;;;;;;;;;5031345;28;20410;-63
2021/06/04 00:09:05;;;;;;;5.97;4.30;;;;;;;;;;5032206;28;20057;-64
2021/06/04 00:11:34;;;;;;;7.05;4.13;;;;;;;;;;5034064;28;20128;-63
2021/06/04 00:14:05;;;;;;;8.43;4.47;;;;;;;;;;5031408;28;20498;-63
2021/06/04 00:16:34;;;;;;;6.05;4.63;;;;;;;;;;5031093;28;20133;-63
2021/06/04 00:19:06;;;;;;;8.43;5.30;;;;;;;;;;5031354;28;20060;-63
2021/06/04 00:21:35;;;;;;;5.93;4.10;;;;;;;;;;5032057;28;20128;-63
2021/06/04 00:24:05;;;;;;;4.80;3.70;;;;;;;;;;5031788;28;20084;-63
2021/06/04 00:26:33;;;;;;;6.50;4.05;;;;;;;;;;5032237;28;20061;-63
2021/06/04 00:29:01;;;;;;;8.15;4.03;;;;;;;;;;5038915;28;20049;-63
2021/06/04 00:31:29;;;;;;;5.03;3.63;;;;;;;;;;5032538;28;20076;-63
2021/06/04 00:33:57;;;;;;;9.15;3.90;;;;;;;;;;5031238;28;20056;-63
2021/06/04 00:36:26;;;;;;;5.18;3.33;;;;;;;;;;5031648;28;20045;-63
2021/06/04 00:38:55;;;;;;;6.43;3.40;;;;;;;;;;5031024;28;20045;-63
2021/06/04 00:41:24;;;;;;;5.07;3.90;;;;;;;;;;5032710;28;20049;-63
2021/06/04 00:43:53;;;;;;;4.93;3.67;;;;;;;;;;5040939;28;20099;-63
2021/06/04 00:46:21;;;;;;;6.78;3.47;;;;;;;;;;5042530;28;20827;-63
2021/06/04 00:48:49;;;;;;;4.18;3.47;;;;;;;;;;5043105;28;20054;-63
2021/06/04 00:51:19;;;;;;;3.67;3.10;;;;;;;;;;5055363;28;20060;-62
2021/06/04 00:53:50;;;;;;;7.07;3.90;;;;;;;;;;5063116;28;20056;-63
2021/06/04 00:56:19;;;;;;;5.47;3.85;;;;;;;;;;5063322;28;20048;-63
2021/06/04 00:58:48;;;;;;;5.93;3.80;;;;;;;;;;5061738;28;20084;-62
2021/06/04 01:01:17;;;;;;;4.82;3.10;;;;;;;;;;5056928;28;20576;-62
2021/06/04 01:03:47;;;;;;;4.47;3.78;;;;;;;;;;5041569;28;20073;-63
2021/06/04 01:06:20;;;;;;;5.25;3.83;;;;;;;;;;5025989;28;20045;-63
2021/06/04 01:08:57;;;;;;;5.45;3.30;;;;;;;;;;5021197;28;20042;-63
2021/06/04 01:11:27;;;;;;;9.23;3.65;;;;;;;;;;5020900;28;20097;-64
2021/06/04 01:14:01;;;;;;;4.45;3.38;;;;;;;;;;5019206;28;20060;-62
2021/06/04 01:16:32;;;;;;;6.05;3.42;;;;;;;;;;5021380;28;20433;-62
2021/06/04 01:19:26;;;;;;;6.80;3.67;;;;;;;;;;5031935;28;20053;-63
2021/06/04 01:21:56;;;;;;;4.00;3.42;;;;;;;;;;5038605;28;20128;-64
2021/06/04 01:24:34;;;;;;;5.07;2.97;;;;;;;;;;5030669;28;20544;-63
2021/06/04 01:27:05;;;;;;;8.32;3.60;;;;;;;;;;5030129;28;20045;-64
2021/06/04 01:29:36;;;;;;;5.95;3.78;;;;;;;;;;5030439;28;20401;-63
2021/06/04 01:32:06;;;;;;;6.32;3.90;;;;;;;;;;5029428;28;20124;-64
2021/06/04 01:34:36;;;;;;;6.40;3.60;;;;;;;;;;5030986;28;20076;-64
2021/06/04 01:37:06;;;;;;;7.15;3.90;;;;;;;;;;5036945;28;20045;-63
2021/06/04 01:39:36;;;;;;;7.70;3.90;;;;;;;;;;5038805;28;20061;-63
2021/06/04 01:42:07;;;;;;;4.88;3.65;;;;;;;;;;5049512;28;20049;-64
2021/06/04 01:44:39;;;;;;;4.85;3.50;;;;;;;;;;5050650;28;20088;-64
2021/06/04 01:47:08;;;;;;;5.45;3.72;;;;;;;;;;5047190;28;20045;-63
2021/06/04 01:49:37;;;;;;;7.18;3.83;;;;;;;;;;5036020;28;20050;-63
2021/06/04 01:52:08;;;;;;;5.97;3.70;;;;;;;;;;5050988;28;20042;-64
2021/06/04 01:54:41;;;;;;;6.05;3.60;;;;;;;;;;5030801;28;20133;-64
2021/06/04 01:57:12;;;;;;;4.53;3.65;;;;;;;;;;5030050;28;20353;-63
2021/06/04 01:59:43;;;;;;;6.78;3.95;;;;;;;;;;5033691;28;20052;-63
2021/06/04 02:02:11;;;;;;;6.72;3.60;;;;;;;;;;5034457;28;20165;-63
2021/06/04 02:04:40;;;;;;;5.70;3.40;;;;;;;;;;5035488;28;20060;-64
2021/06/04 02:07:09;;;;;;;6.93;3.63;;;;;;;;;;5035405;28;20053;-64
2021/06/04 02:09:37;;;;;;;6.05;4.10;;;;;;;;;;5036389;28;20490;-64
2021/06/04 02:12:06;;;;;;;5.40;3.38;;;;;;;;;;5037893;28;20084;-63
2021/06/04 02:14:36;;;;;;;6.00;3.60;;;;;;;;;;5036314;28;20080;-63
2021/06/04 02:17:12;;;;;;;6.57;4.05;;;;;;;;;;5035511;28;20076;-63
2021/06/04 02:19:48;;;;;;;4.93;3.30;;;;;;;;;;5036880;28;20046;-63
2021/06/04 02:22:19;;;;;;;5.18;3.80;;;;;;;;;;5037456;28;20460;-63
2021/06/04 02:24:49;;;;;;;7.53;4.25;;;;;;;;;;5036841;28;20050;-64
2021/06/04 02:27:20;;;;;;;4.45;3.40;;;;;;;;;;5029521;28;20057;-64
2021/06/04 02:29:51;;;;;;;5.90;3.50;;;;;;;;;;5030102;28;20054;-64
2021/06/04 02:32:22;;;;;;;6.03;3.78;;;;;;;;;;5029983;28;20517;-64
2021/06/04 02:34:53;;;;;;;4.80;3.63;;;;;;;;;;5030079;28;20049;-64
2021/06/04 02:37:23;;;;;;;7.53;3.90;;;;;;;;;;5029424;28;20127;-64
2021/06/04 02:39:52;;;;;;;5.90;4.13;;;;;;;;;;5029823;28;20045;-64
2021/06/04 02:42:22;;;;;;;5.15;3.65;;;;;;;;;;5050949;28;20055;-64
2021/06/04 02:44:52;;;;;;;4.47;3.72;;;;;;;;;;5035959;28;20140;-64
2021/06/04 02:47:22;;;;;;;7.40;4.10;;;;;;;;;;5032743;28;20525;-64
2021/06/04 02:49:50;;;;;;;5.80;3.95;;;;;;;;;;5033486;28;20049;-64
2021/06/04 02:52:30;;;;;;;6.40;3.78;;;;;;;;;;5014156;28;20137;-64
2021/06/04 02:54:59;;;;;;;7.07;4.03;;;;;;;;;;5013189;28;20491;-61
2021/06/04 02:57:29;;;;;;;5.50;4.00;;;;;;;;;;5014030;28;20512;-64
2021/06/04 02:59:58;;;;;;;6.20;3.80;;;;;;;;;;5017672;28;20485;-64
2021/06/04 03:02:28;;;;;;;7.82;4.13;;;;;;;;;;5038054;28;20057;-64
2021/06/04 03:04:57;;;;;;;5.78;3.95;;;;;;;;;;5037860;28;20076;-64
2021/06/04 03:07:27;;;;;;;6.78;4.07;;;;;;;;;;5037956;28;20079;-64
2021/06/04 03:09:56;;;;;;;6.05;4.15;;;;;;;;;;5038585;28;20071;-64
2021/06/04 03:12:25;;;;;;;5.55;4.05;;;;;;;;;;5038086;28;20046;-64
2021/06/04 03:14:54;;;;;;;7.88;4.55;;;;;;;;;;5036642;28;20091;-64
2021/06/04 03:17:26;;;;;;;9.52;4.50;;;;;;;;;;5025021;28;20053;-64
2021/06/04 03:19:54;;;;;;;7.60;4.45;;;;;;;;;;5040634;28;20057;-64
2021/06/04 03:22:24;;;;;;;6.72;4.10;;;;;;;;;;5040896;28;20141;-63
2021/06/04 03:24:52;;;;;;;9.23;4.60;;;;;;;;;;5038914;28;20426;-63
2021/06/04 03:27:21;;;;;;;6.22;4.35;;;;;;;;;;5040345;28;20102;-63
2021/06/04 03:29:49;;;;;;;7.90;4.13;;;;;;;;;;5040099;28;20105;-63
2021/06/04 03:32:17;;;;;;;7.38;4.63;;;;;;;;;;5038117;28;20046;-64
2021/06/04 03:34:47;;;;;;;6.85;4.15;;;;;;;;;;5034153;28;20042;-64
2021/06/04 03:37:16;;;;;;;8.80;4.40;;;;;;;;;;5039768;28;20049;-63
2021/06/04 03:39:45;;;;;;;8.48;4.38;;;;;;;;;;5043301;28;20127;-63
2021/06/04 03:42:14;;;;;;;11.35;5.00;;;;;;;;;;5043855;28;20053;-63
2021/06/04 03:44:44;;;;;;;9.40;4.38;;;;;;;;;;5043842;28;20059;-63
2021/06/04 03:47:12;;;;;;;6.40;4.47;;;;;;;;;;5040386;28;20049;-63
2021/06/04 03:49:40;;;;;;;6.18;3.97;;;;;;;;;;5039544;28;20045;-63
2021/06/04 03:52:11;;;;;;;6.05;4.68;;;;;;;;;;5045056;28;20068;-63
2021/06/04 03:54:40;;;;;;;6.97;4.25;;;;;;;;;;5032660;28;20136;-63
2021/06/04 03:57:09;;;;;;;7.13;4.40;;;;;;;;;;5034138;28;20140;-62
2021/06/04 03:59:37;;;;;;;5.97;4.30;;;;;;;;;;5040223;28;20057;-63
2021/06/04 04:02:07;;;;;;;5.30;4.30;;;;;;;;;;5040492;28;20053;-63
2021/06/04 04:04:36;;;;;;;10.00;4.82;;;;;;;;;;5039443;28;20348;-63
2021/06/04 04:07:04;;;;;;;7.97;4.63;;;;;;;;;;5037799;28;20468;-63
2021/06/04 04:09:33;;;;;;;6.50;4.50;;;;;;;;;;5036028;28;20076;-63
2021/06/04 04:12:01;;;;;;;10.30;4.57;;;;;;;;;;5042567;28;20459;-63
2021/06/04 04:14:29;;;;;;;6.97;4.13;;;;;;;;;;5041241;28;20046;-63
2021/06/04 04:16:57;;;;;;;5.00;3.78;;;;;;;;;;5039629;28;20069;-63
2021/06/04 04:19:26;;;;;;;8.30;4.65;;;;;;;;;;5042680;28;20073;-63
2021/06/04 04:21:55;;;;;;;9.02;4.85;;;;;;;;;;5042353;28;20056;-63
2021/06/04 04:24:24;;;;;;;8.50;4.53;;;;;;;;;;5041742;28;20088;-63
2021/06/04 04:26:54;;;;;;;8.30;4.57;;;;;;;;;;5041608;28;20049;-63
2021/06/04 04:29:22;;;;;;;6.50;4.57;;;;;;;;;;5042531;28;20053;-63
2021/06/04 04:31:52;;;;;;;7.63;4.68;;;;;;;;;;5041870;28;20060;-63
2021/06/04 04:34:21;;;;;;;6.13;3.95;;;;;;;;;;5041154;28;20041;-63
2021/06/04 04:36:50;;;;;;;6.03;4.55;;;;;;;;;;5041794;28;20045;-63
2021/06/04 04:39:20;;;;;;;5.90;4.20;;;;;;;;;;5040895;28;20079;-63
2021/06/04 04:41:48;;;;;;;6.43;4.10;;;;;;;;;;5040065;28;20136;-63
2021/06/04 04:44:19;;;;;;;5.95;4.32;;;;;;;;;;5020334;28;20085;-63
2021/06/04 04:46:47;;;;;;;6.72;4.50;;;;;;;;;;5019744;28;20069;-64
2021/06/04 04:49:15;;;;;;;5.25;3.70;;;;;;;;;;5035290;28;20487;-64
2021/06/04 04:51:43;;;;;;;9.30;4.72;;;;;;;;;;5056619;28;20108;-63
2021/06/04 04:54:11;;;;;;;6.15;4.43;;;;;;;;;;5057922;28;20131;-63
2021/06/04 04:56:40;;;;;;;7.13;4.40;;;;;;;;;;5058748;28;20045;-64
2021/06/04 04:59:09;;;;;;;9.02;4.13;;;;;;;;;;5054121;28;20049;-63
2021/06/04 05:01:38;;;;;;;10.38;4.82;;;;;;;;;;5039021;28;20580;-63
2021/06/04 05:04:06;;;;;;;5.43;4.22;;;;;;;;;;5037676;28;20110;-64
2021/06/04 05:06:35;;;;;;;9.73;4.70;;;;;;;;;;5031841;28;20108;-63
2021/06/04 05:09:04;;;;;;;7.80;4.90;;;;;;;;;;5017712;28;20490;-63
2021/06/04 05:11:32;;;;;;;6.25;4.50;;;;;;;;;;5019153;28;20054;-63
2021/06/04 05:14:00;;;;;;;7.68;4.90;;;;;;;;;;5018311;28;20054;-63
2021/06/04 05:16:28;;;;;;;6.60;4.13;;;;;;;;;;5022052;28;20060;-64
2021/06/04 05:18:57;;;;;;;10.52;5.28;;;;;;;;;;5034095;28;20137;-64
2021/06/04 05:21:27;;;;;;;6.70;4.57;;;;;;;;;;5034220;28;20060;-64
2021/06/04 05:23:55;;;;;;;10.68;5.07;;;;;;;;;;5034687;28;20390;-64
2021/06/04 05:26:23;;;;;;;14.35;5.72;;;;;;;;;;5034458;28;20436;-63
2021/06/04 05:28:51;;;;;;;9.88;4.88;;;;;;;;;;5034878;28;20053;-63
2021/06/04 05:31:19;;;;;;;14.02;6.05;;;;;;;;;;5035153;28;20397;-63
2021/06/04 05:33:48;;;;;;;11.48;5.55;;;;;;;;;;5035231;28;20083;-63
2021/06/04 05:36:19;;;;;;;9.80;6.20;;;;;;;;;;5034452;28;20533;-64
2021/06/04 05:38:48;;;;;;;9.43;5.18;;;;;;;;;;5034893;28;20050;-63
2021/06/04 05:41:16;;;;;;;8.88;5.10;;;;;;;;;;5035034;28;20045;-64
2021/06/04 05:43:44;;;;;;;10.07;5.70;;;;;;;;;;5035867;28;20045;-64
2021/06/04 05:46:15;;;;;;;8.05;4.68;;;;;;;;;;5034176;28;20378;-64
2021/06/04 05:48:43;;;;;;;8.63;5.35;;;;;;;;;;5035148;28;20448;-64
2021/06/04 05:51:14;;;;;;;11.95;5.35;;;;;;;;;;5035343;28;20045;-64
2021/06/04 05:53:44;;;;;;;14.30;5.28;;;;;;;;;;5036355;28;20115;-63
2021/06/04 05:56:13;;;;;;;15.38;6.20;;;;;;;;;;5034716;28;20068;-63
2021/06/04 05:58:42;;;;;;;32.42;6.82;;;;;;;;;;5035348;28;20085;-64
2021/06/04 06:01:11;;;;;;;37.50;6.85;;;;;;;;;;5034512;28;20053;-63
2021/06/04 06:03:40;;;;;;;28.25;6.30;;;;;;;;;;5034799;28;20057;-63
2021/06/04 06:06:10;;;;;;;21.55;6.75;;;;;;;;;;5034006;28;20103;-63
2021/06/04 06:08:39;;;;;;;24.10;7.38;;;;;;;;;;5034742;28;20091;-63
2021/06/04 06:11:09;;;;;;;16.00;6.10;;;;;;;;;;5034515;28;20045;-63
2021/06/04 06:13:37;;;;;;;12.93;5.72;;;;;;;;;;5034623;28;20049;-63
2021/06/04 06:16:05;;;;;;;18.70;6.20;;;;;;;;;;5033451;28;20115;-64
2021/06/04 06:18:33;;;;;;;15.38;6.20;;;;;;;;;;5033319;28;20409;-64
2021/06/04 06:21:01;;;;;;;12.27;6.05;;;;;;;;;;5033735;28;20045;-64
2021/06/04 06:23:31;;;;;;;12.80;5.80;;;;;;;;;;5033790;28;20136;-65
2021/06/04 06:26:01;;;;;;;10.50;5.05;;;;;;;;;;5035377;28;20049;-64
2021/06/04 06:28:33;;;;;;;14.02;6.18;;;;;;;;;;5034874;28;20105;-64
2021/06/04 06:31:02;;;;;;;16.40;5.68;;;;;;;;;;5035703;28;20076;-64
2021/06/04 06:33:30;;;;;;;10.77;5.70;;;;;;;;;;5034093;28;20083;-64
2021/06/04 06:35:59;;;;;;;11.88;5.57;;;;;;;;;;5034314;28;20045;-64
2021/06/04 06:38:28;;;;;;;14.13;5.47;;;;;;;;;;5037572;28;20057;-63
2021/06/04 06:40:57;;;;;;;10.68;4.80;;;;;;;;;;5032816;28;20089;-64
2021/06/04 06:43:27;;;;;;;14.57;6.00;;;;;;;;;;5038048;28;20057;-64
2021/06/04 06:45:57;;;;;;;16.17;5.25;;;;;;;;;;5039074;28;20140;-63
2021/06/04 06:48:25;;;;;;;11.93;5.72;;;;;;;;;;5036723;28;20046;-63
2021/06/04 06:50:54;;;;;;;14.82;5.22;;;;;;;;;;5047202;28;20068;-63
2021/06/04 06:53:22;;;;;;;13.27;5.43;;;;;;;;;;5053871;28;20045;-64
2021/06/04 06:55:51;;;;;;;9.25;5.22;;;;;;;;;;5053351;28;20143;-64
2021/06/04 06:58:19;;;;;;;12.85;4.88;;;;;;;;;;5050376;28;20136;-64
2021/06/04 07:00:48;;;;;;;10.93;5.72;;;;;;;;;;5037140;28;20072;-63
2021/06/04 07:03:19;;;;;;;8.10;5.03;;;;;;;;;;5037161;28;20533;-63
2021/06/04 07:05:47;;;;;;;8.70;5.15;;;;;;;;;;5037797;28;20048;-63
2021/06/04 07:08:15;;;;;;;10.85;4.68;;;;;;;;;;5033245;28;20058;-62
2021/06/04 07:10:43;;;;;;;7.38;4.93;;;;;;;;;;5037918;28;20048;-62
2021/06/04 07:13:13;;;;;;;7.28;5.00;;;;;;;;;;5037700;28;20117;-62
2021/06/04 07:15:41;;;;;;;7.50;4.40;;;;;;;;;;5036863;28;20065;-62
2021/06/04 07:18:09;;;;;;;7.43;4.80;;;;;;;;;;5038061;28;20077;-62
2021/06/04 07:20:38;;;;;;;8.45;4.80;;;;;;;;;;5038490;28;20049;-62
2021/06/04 07:23:09;;;;;;;9.30;5.07;;;;;;;;;;5038586;28;20087;-62
2021/06/04 07:25:39;;;;;;;8.48;4.85;;;;;;;;;;5038330;28;20061;-63
2021/06/04 07:28:09;;;;;;;8.45;5.15;;;;;;;;;;5037248;28;20441;-62
2021/06/04 07:30:38;;;;;;;10.73;4.95;;;;;;;;;;5037647;28;20045;-63
2021/06/04 07:33:08;;;;;;;7.15;4.78;;;;;;;;;;5031932;28;20106;-64
2021/06/04 07:35:36;;;;;;;6.57;4.63;;;;;;;;;;5032277;28;20045;-64
2021/06/04 07:38:06;;;;;;;11.80;5.00;;;;;;;;;;5031774;28;20045;-64
2021/06/04 07:40:36;;;;;;;6.35;4.47;;;;;;;;;;5040365;28;20124;-63
2021/06/04 07:43:06;;;;;;;6.20;5.30;;;;;;;;;;5056079;28;20049;-62
2021/06/04 07:45:36;;;;;;;8.98;4.75;;;;;;;;;;5052174;28;20493;-62
2021/06/04 07:48:05;;;;;;;5.00;4.47;;;;;;;;;;5039663;28;20049;-63
2021/06/04 07:50:33;;;;;;;6.45;4.68;;;;;;;;;;5040511;28;20099;-63
2021/06/04 07:53:01;;;;;;;4.68;4.20;;;;;;;;;;5056645;28;20088;-63
2021/06/04 07:55:31;;;;;;;11.65;5.57;;;;;;;;;;5056279;28;20045;-63
2021/06/04 07:57:59;;;;;;;7.70;4.50;;;;;;;;;;5056370;28;20067;-63
2021/06/04 08:00:29;;;;;;;6.53;5.25;;;;;;;;;;5057152;28;20049;-63
2021/06/04 08:03:00;;;;;;;10.60;5.30;;;;;;;;;;5057158;28;20088;-63
2021/06/04 08:05:29;;;;;;;6.38;4.32;;;;;;;;;;5056768;28;20083;-63
2021/06/04 08:07:58;;;;;;;8.30;4.68;;;;;;;;;;5037461;28;20508;-64
2021/06/04 08:10:26;;;;;;;6.80;5.07;;;;;;;;;;5035792;28;20045;-64
2021/06/04 08:12:55;;;;;;;9.70;5.40;;;;;;;;;;5037715;28;20041;-63
2021/06/04 08:15:27;;;;;;;6.97;4.15;;;;;;;;;;5036627;28;20041;-63
2021/06/04 08:17:55;;;;;;;8.63;5.47;;;;;;;;;;5036473;28;20049;-64
2021/06/04 08:20:27;;;;;;;7.65;4.70;;;;;;;;;;5035698;28;20042;-63
2021/06/04 08:22:57;;;;;;;6.95;4.80;;;;;;;;;;5036142;28;20058;-63
2021/06/04 08:25:27;;;;;;;8.80;5.53;;;;;;;;;;5036312;28;20429;-63
2021/06/04 08:27:57;;;;;;;8.13;5.35;;;;;;;;;;5035062;28;20053;-63
2021/06/04 08:30:25;;;;;;;6.55;4.78;;;;;;;;;;5035188;28;20045;-63
2021/06/04 08:32:54;;;;;;;8.07;4.90;;;;;;;;;;5035995;28;20115;-63
2021/06/04 08:35:23;;;;;;;13.77;4.95;;;;;;;;;;5035326;28;20072;-63
2021/06/04 08:37:51;;;;;;;8.50;4.80;;;;;;;;;;5035260;28;20053;-63
2021/06/04 08:40:25;;;;;;;10.05;5.15;;;;;;;;;;5038089;28;20067;-62
2021/06/04 08:43:00;;;;;;;6.32;4.47;;;;;;;;;;5055874;28;20045;-63
2021/06/04 08:45:32;;;;;;;8.15;5.47;;;;;;;;;;5055610;28;20048;-62
2021/06/04 08:48:06;;;;;;;6.03;4.95;;;;;;;;;;5040238;28;20045;-62
2021/06/04 08:50:37;;;;;;;8.85;4.22;;;;;;;;;;5035652;28;20053;-63
2021/06/04 08:53:10;;;;;;;10.68;4.63;;;;;;;;;;5034750;28;20060;-63
2021/06/04 08:55:39;;;;;;;10.52;5.03;;;;;;;;;;5031642;28;20048;-63
2021/06/04 08:58:14;;;;;;;9.20;4.45;;;;;;;;;;5030515;28;20073;-63
2021/06/04 09:00:54;;;;;;;8.57;5.20;;;;;;;;;;5031181;28;20132;-63
2021/06/04 09:03:25;;;;;;;7.20;4.55;;;;;;;;;;5030125;28;20061;-63
2021/06/04 09:05:54;;;;;;;10.02;5.28;;;;;;;;;;5011720;28;20092;-63
2021/06/04 09:08:25;;;;;;;7.47;4.85;;;;;;;;;;5013065;28;20053;-63
2021/06/04 09:10:56;;;;;;;5.53;4.50;;;;;;;;;;5030716;28;20456;-63
2021/06/04 09:13:30;;;;;;;9.25;4.60;;;;;;;;;;5031807;28;20049;-63
2021/06/04 09:16:04;;;;;;;9.10;4.70;;;;;;;;;;5030674;28;20376;-63
2021/06/04 09:18:39;;;;;;;9.60;5.35;;;;;;;;;;5030134;28;20293;-63
2021/06/04 09:21:08;;;;;;;11.93;5.63;;;;;;;;;;5030835;28;20045;-63
2021/06/04 09:23:37;;;;;;;9.73;5.35;;;;;;;;;;5030550;28;20046;-63
2021/06/04 09:26:06;;;;;;;16.42;5.78;;;;;;;;;;5030381;28;20049;-63
2021/06/04 09:28:35;;;;;;;6.00;5.00;;;;;;;;;;5030023;28;20049;-63
2021/06/04 09:34:02;;;;;;;8.02;4.55;;;;;;;;;;5174021;27;20150;-87
2021/06/04 09:36:44;;;;;;;8.15;4.72;;;;;;;;;;5153744;27;20475;-88
2021/06/04 09:39:18;;;;;;;8.75;4.53;;;;;;;;;;5115764;28;20093;-88
2021/06/04 09:41:49;;;;;;;6.43;4.30;;;;;;;;;;5101550;28;20160;-90
2021/06/04 09:44:29;;;;;;;9.80;5.80;;;;;;;;;;5092172;28;20331;-87
2021/06/04 09:47:02;;;;;;;8.93;4.95;;;;;;;;;;5094799;27;20076;-88
2021/06/04 09:50:01;;;;;;;8.90;5.53;;;;;;;;;;5111410;28;20499;-87
2021/06/04 09:52:47;;;;;;;12.27;5.85;;;;;;;;;;5116484;28;20070;-88
2021/06/04 09:55:25;;;;;;;6.55;4.95;;;;;;;;;;5115993;28;20054;-88
2021/06/04 09:58:14;;;;;;;9.02;4.88;;;;;;;;;;5118523;27;20052;-87
2021/06/04 10:00:46;;;;;;;7.30;5.30;;;;;;;;;;5113038;28;20071;-88
2021/06/04 10:03:24;;;;;;;6.18;5.43;;;;;;;;;;5114145;28;20481;-86
2021/06/04 10:06:16;;;;;;;7.30;4.50;;;;;;;;;;5106384;27;20138;-88
2021/06/04 10:08:46;;;;;;;10.75;5.47;;;;;;;;;;5107767;28;20071;-89
2021/06/04 10:11:16;;;;;;;7.57;4.93;;;;;;;;;;5095715;28;20048;-88
2021/06/04 10:13:50;;;;;;;11.13;4.20;;;;;;;;;;5057595;28;20044;-88
2021/06/04 10:17:03;;;;;;;6.38;4.38;;;;;;;;;;5095900;27;20131;-88
2021/06/04 10:19:39;;;;;;;10.60;5.40;;;;;;;;;;5097247;28;20048;-88
2021/06/04 10:22:20;;;;;;;5.72;5.15;;;;;;;;;;5099608;28;20048;-87
2021/06/04 10:24:54;;;;;;;6.60;4.57;;;;;;;;;;5118262;28;20105;-87
2021/06/04 10:27:42;;;;;;;8.63;4.65;;;;;;;;;;5114097;27;20071;-88
2021/06/04 10:30:16;;;;;;;10.15;4.68;;;;;;;;;;5107010;28;20048;-87
2021/06/04 10:32:48;;;;;;;5.93;4.22;;;;;;;;;;5093976;28;20048;-88
2021/06/04 10:35:21;;;;;;;8.60;4.60;;;;;;;;;;5091945;28;20472;-89
2021/06/04 10:37:55;;;;;;;6.15;4.40;;;;;;;;;;5097381;28;20059;-88
2021/06/04 10:40:40;;;;;;;7.20;4.35;;;;;;;;;;5112828;28;20479;-87
2021/06/04 10:43:24;;;;;;;5.28;3.90;;;;;;;;;;5112139;28;20139;-86
2021/06/04 10:45:54;;;;;;;;;;;;;;;;;;5101884;28;20100;-88
2021/06/04 10:48:36;;;;;;;8.32;4.75;;;;;;;;;;5082986;28;20019;-88
2021/06/04 10:51:20;;;;;;;5.32;4.15;;;;;;;;;;5084030;28;20047;-89
2021/06/04 10:56:43;;;;;;;10.23;5.03;;;;;;;;;;5079402;28;20055;-88
2021/06/04 10:59:17;;;;;;;6.70;4.70;;;;;;;;;;5084281;28;20488;-89
2021/06/04 11:01:53;;;;;;;7.80;4.90;;;;;;;;;;5080330;28;20048;-89
2021/06/04 11:04:23;;;;;;;8.95;6.15;;;;;;;;;;5081596;28;20055;-89
2021/06/04 11:07:03;;;;;;;6.55;5.90;;;;;;;;;;5079079;28;20041;-87
2021/06/04 11:09:50;;;;;;;7.82;5.80;;;;;;;;;;5080627;28;20040;-88
2021/06/04 11:12:45;;;;;;;7.70;5.03;;;;;;;;;;5094419;28;20105;-89
2021/06/04 11:15:25;;;;;;;10.57;7.00;;;;;;;;;;5083168;28;20056;-88
2021/06/04 11:17:57;;;;;;;7.15;5.55;;;;;;;;;;5079670;28;20048;-88
2021/06/04 11:20:28;;;;;;;8.93;5.60;;;;;;;;;;5081989;28;20082;-89
2021/06/04 11:23:03;;;;;;;6.38;5.30;;;;;;;;;;5082561;28;20048;-89
2021/06/04 11:25:52;;;;;;;10.80;5.32;;;;;;;;;;5083114;28;20478;-90
2021/06/04 11:28:44;;;;;;;8.30;5.43;;;;;;;;;;5075118;28;20044;-89
2021/06/04 11:31:35;;;;;;;10.27;4.68;;;;;;;;;;5135481;27;20047;-89
2021/06/04 11:34:25;;;;;;;7.75;4.85;;;;;;;;;;5142201;27;20047;-88
2021/06/04 11:37:04;;;;;;;6.63;4.40;;;;;;;;;;5113740;27;20047;-88
2021/06/04 11:39:33;;;;;;;10.38;5.22;;;;;;;;;;5131468;27;20578;-86
2021/06/04 11:42:05;;;;;;;7.53;5.40;;;;;;;;;;5113212;27;20425;-88
2021/06/04 11:44:41;;;;;;;7.50;4.78;;;;;;;;;;5111704;28;20138;-90
2021/06/04 11:47:39;;;;;;;7.35;5.45;;;;;;;;;;5111590;27;20166;-88
2021/06/04 11:50:27;;;;;;;9.60;4.85;;;;;;;;;;5125159;27;20078;-87
2021/06/04 11:53:29;;;;;;;10.98;5.15;;;;;;;;;;5111295;28;20055;-86
2021/06/04 11:56:05;;;;;;;8.15;4.70;;;;;;;;;;5110988;28;20114;-86
2021/06/04 11:58:57;;;;;;;9.38;5.18;;;;;;;;;;5113987;28;20081;-89
2021/06/04 12:01:35;;;;;;;5.57;4.10;;;;;;;;;;5099386;28;20059;-87
2021/06/04 12:04:06;;;;;;;5.93;4.20;;;;;;;;;;5112762;28;20059;-88
2021/06/04 12:06:52;;;;;;;5.80;4.13;;;;;;;;;;5117383;28;20078;-87
2021/06/04 12:09:41;;;;;;;6.10;4.13;;;;;;;;;;5110855;28;20499;-88
2021/06/04 12:12:37;;;;;;;5.05;3.70;;;;;;;;;;5093102;28;20134;-88
2021/06/04 12:15:24;;;;;;;7.00;3.30;;;;;;;;;;5054425;28;20056;-88
2021/06/04 12:17:52;;;;;;;5.97;4.15;;;;;;;;;;5115817;28;20078;-87
2021/06/04 12:20:35;;;;;;;6.10;4.13;;;;;;;;;;5113663;28;20489;-87
2021/06/04 12:23:04;;;;;;;5.40;3.75;;;;;;;;;;5117166;28;20048;-88
2021/06/04 12:25:45;;;;;;;6.80;3.80;;;;;;;;;;5112492;28;20471;-87
2021/06/04 12:28:33;;;;;;;4.35;3.88;;;;;;;;;;5112347;28;20399;-88
2021/06/04 12:31:31;;;;;;;8.18;3.65;;;;;;;;;;5112768;28;20044;-87
2021/06/04 12:34:00;;;;;;;5.13;4.10;;;;;;;;;;5111929;28;20147;-87
2021/06/04 12:36:55;;;;;;;7.30;3.72;;;;;;;;;;5111910;28;20071;-86
2021/06/04 12:39:38;;;;;;;6.45;4.07;;;;;;;;;;5051365;28;20144;-88
2021/06/04 12:42:14;;;;;;;8.63;3.70;;;;;;;;;;327917;28;10022784;-87
2021/06/04 12:44:51;;;;;;;5.53;3.38;;;;;;;;;;5072552;28;20044;-87
2021/06/04 12:47:24;;;;;;;5.57;3.90;;;;;;;;;;5084679;28;20044;-89
2021/06/04 12:50:15;;;;;;;6.10;3.67;;;;;;;;;;5102418;28;20067;-90
2021/06/04 12:52:46;;;;;;;5.32;4.10;;;;;;;;;;5085121;28;20472;-89
2021/06/04 12:55:20;;;;;;;7.20;3.63;;;;;;;;;;5100270;28;20062;-88
2021/06/04 12:57:51;;;;;;;4.50;3.33;;;;;;;;;;5103343;28;20056;-89
2021/06/04 13:00:25;;;;;;;4.65;3.55;;;;;;;;;;5102337;28;20052;-90
2021/06/04 13:03:09;;;;;;;5.20;3.50;;;;;;;;;;5093587;28;20060;-89
2021/06/04 13:05:45;;;;;;;4.32;3.78;;;;;;;;;;5101243;28;20048;-89
2021/06/04 13:08:16;;;;;;;4.57;3.20;;;;;;;;;;5102912;28;20170;-89
2021/06/04 13:20:11;;;;;;;5.60;3.38;;;;;;;;;;5082418;28;20571;-88
2021/06/04 13:22:41;;;;;;;9.45;3.78;;;;;;;;;;5083370;28;20048;-89
2021/06/04 13:25:21;;;;;;;4.13;3.28;;;;;;;;;;5074947;28;20468;-89
2021/06/04 13:27:49;;;;;;;3.90;3.50;;;;;;;;;;5072328;28;20068;-89
2021/06/04 13:30:33;;;;;;;7.80;4.40;;;;;;;;;;5080381;28;20083;-90
2021/06/04 13:33:02;;;;;;;6.78;4.18;;;;;;;;;;5073031;28;20056;-91
2021/06/04 13:35:35;;;;;;;5.28;3.60;;;;;;;;;;5055888;28;20135;-89
2021/06/04 13:38:10;;;;;;;6.57;3.70;;;;;;;;;;5054316;28;20044;-88
2021/06/04 13:40:40;;;;;;;7.32;3.45;;;;;;;;;;5073259;28;20045;-88
2021/06/04 13:43:09;;;;;;;8.43;3.90;;;;;;;;;;5092036;28;20109;-90
2021/06/04 13:45:44;;;;;;;5.72;3.90;;;;;;;;;;5091943;28;20102;-90
2021/06/04 13:48:18;;;;;;;6.68;4.05;;;;;;;;;;5093180;28;20047;-89
2021/06/04 13:50:53;;;;;;;7.28;3.45;;;;;;;;;;5092327;28;20078;-89
2021/06/04 13:53:29;;;;;;;4.93;3.58;;;;;;;;;;5097546;28;20207;-88
2021/06/04 13:56:19;;;;;;;8.80;4.55;;;;;;;;;;5098689;28;20135;-89
2021/06/04 13:58:51;;;;;;;4.97;3.30;;;;;;;;;;5079657;28;20494;-89
2021/06/04 14:01:22;;;;;;;4.90;3.47;;;;;;;;;;5098637;28;20052;-89
2021/06/04 14:04:00;;;;;;;5.95;3.58;;;;;;;;;;5098712;28;20048;-88
2021/06/04 14:06:33;;;;;;;4.13;3.17;;;;;;;;;;5082196;28;20495;-88
2021/06/04 14:09:04;;;;;;;4.82;3.10;;;;;;;;;;5097169;28;20048;-89
2021/06/04 14:11:36;;;;;;;4.03;3.33;;;;;;;;;;5096248;28;20052;-89
2021/06/04 14:14:06;;;;;;;4.53;3.47;;;;;;;;;;5093984;28;20044;-89
2021/06/04 14:16:47;;;;;;;4.35;3.30;;;;;;;;;;5091060;28;20453;-89
2021/06/04 14:19:27;;;;;;;4.65;3.58;;;;;;;;;;5098781;28;20553;-90
2021/06/04 14:22:33;;;;;;;5.88;2.55;;;;;;;;;;5101199;28;20411;-89
2021/06/04 14:25:26;;;;;;;7.50;2.88;;;;;;;;;;5106006;28;20044;-87
2021/06/04 14:28:12;;;;;;;7.28;2.42;;;;;;;;;;5086755;28;20543;-92
2021/06/04 14:31:12;;;;;;;7.50;2.50;;;;;;;;;;5107303;28;20079;-87
2021/06/04 14:33:56;;;;;;;5.60;2.35;;;;;;;;;;5088452;28;20151;-90
2021/06/04 14:36:27;;;;;;;6.13;2.70;;;;;;;;;;5092143;28;20487;-89
2021/06/04 14:42:09;;;;;;;8.60;2.80;;;;;;;;;;5088659;28;20032;-88
2021/06/04 14:44:37;;;;;;;5.70;2.60;;;;;;;;;;5073235;28;20059;-89
2021/06/04 14:47:12;;;;;;;5.43;2.55;;;;;;;;;;5071943;28;20101;-88
2021/06/04 14:49:43;;;;;;;7.15;2.55;;;;;;;;;;5072363;28;20048;-88
2021/06/04 14:52:12;;;;;;;5.53;2.85;;;;;;;;;;5091766;28;20040;-87
2021/06/04 14:54:40;;;;;;;5.82;2.80;;;;;;;;;;5076292;28;20044;-87
2021/06/04 14:57:10;;;;;;;8.32;2.78;;;;;;;;;;5051673;28;20045;-87
2021/06/04 14:59:39;;;;;;;5.60;2.60;;;;;;;;;;5059206;28;20044;-88
2021/06/04 15:05:23;;;;;;;8.25;2.35;;;;;;;;;;5076651;28;20053;-86
2021/06/04 15:07:52;;;;;;;6.85;2.70;;;;;;;;;;5082730;28;20041;-86
2021/06/04 15:10:33;;;;;;;6.43;2.50;;;;;;;;;;5088721;28;20111;-87
2021/06/04 15:13:05;;;;;;;4.88;2.28;;;;;;;;;;5103609;28;20079;-87
2021/06/04 15:15:37;;;;;;;8.98;2.60;;;;;;;;;;5101678;28;20075;-89
2021/06/04 15:21:14;;;;;;;5.55;2.25;;;;;;;;;;5083631;28;20055;-87
2021/06/04 15:26:52;;;;;;;4.95;2.40;;;;;;;;;;5102694;28;20052;-88
2021/06/04 15:29:39;;;;;;;5.28;2.50;;;;;;;;;;5106672;28;20115;-86
2021/06/04 15:32:13;;;;;;;3.67;2.13;;;;;;;;;;5091558;28;20044;-85
2021/06/04 15:34:56;;;;;;;3.80;2.40;;;;;;;;;;5107891;28;20070;-91
2021/06/04 15:37:32;;;;;;;4.68;1.92;;;;;;;;;;5104294;28;20151;-89
2021/06/04 15:43:16;;;;;;;6.22;2.10;;;;;;;;;;5123804;28;20075;-89
2021/06/04 15:45:45;;;;;;;4.82;2.40;;;;;;;;;;5107987;28;20484;-85